createdAt,value
2023-03-16T00:02:10.330Z,17.80
2023-03-16T00:04:37.778Z,18.33
2023-03-16T00:07:06.074Z,19.90
2023-03-16T00:09:32.951Z,18.27
2023-03-16T00:12:04.644Z,20.17
2023-03-16T00:14:32.460Z,21.95
2023-03-16T00:16:59.396Z,18.88
2023-03-16T00:19:25.975Z,19.10
2023-03-16T00:21:53.286Z,20.10
2023-03-16T00:24:20.388Z,20.67
2023-03-16T00:26:48.013Z,19.95
2023-03-16T00:29:14.989Z,21.67
2023-03-16T00:31:44.073Z,21.10
2023-03-16T00:34:11.674Z,20.23
2023-03-16T00:36:38.621Z,18.88
2023-03-16T00:39:06.906Z,20.85
2023-03-16T00:41:38.032Z,18.75
2023-03-16T00:44:05.684Z,20.97
2023-03-16T00:46:32.463Z,19.50
2023-03-16T00:48:59.320Z,21.65
2023-03-16T00:51:25.949Z,21.50
2023-03-16T00:53:52.539Z,20.50
2023-03-16T00:56:19.250Z,21.35
2023-03-16T00:58:46.000Z,19.05
2023-03-16T01:01:18.841Z,20.20
2023-03-16T01:03:46.349Z,20.10
2023-03-16T01:06:17.520Z,19.60
2023-03-16T01:08:44.655Z,19.52
2023-03-16T01:11:21.074Z,17.23
2023-03-16T01:14:13.153Z,19.63
2023-03-16T01:16:40.771Z,18.25
2023-03-16T01:19:07.873Z,15.68
2023-03-16T01:21:36.919Z,16.48
2023-03-16T01:24:04.470Z,18.70
2023-03-16T01:26:31.178Z,18.77
2023-03-16T01:28:57.782Z,17.65
2023-03-16T01:31:24.455Z,15.38
2023-03-16T01:33:52.210Z,16.23
2023-03-16T01:36:22.301Z,19.92
2023-03-16T01:38:53.998Z,18.30
2023-03-16T01:41:22.143Z,17.17
2023-03-16T01:43:48.812Z,18.05
2023-03-16T01:46:20.012Z,17.80
2023-03-16T01:49:02.038Z,18.15
2023-03-16T01:51:42.003Z,16.27
2023-03-16T01:54:14.619Z,18.35
2023-03-16T01:57:15.691Z,18.42
2023-03-16T02:00:10.548Z,15.45
2023-03-16T02:02:46.267Z,16.95
2023-03-16T02:05:30.893Z,17.42
2023-03-16T02:07:58.657Z,19.35
2023-03-16T02:10:28.891Z,17.52
2023-03-16T02:12:56.108Z,17.42
2023-03-16T02:15:22.986Z,17.88
2023-03-16T02:17:51.000Z,17.83
2023-03-16T02:20:26.331Z,19.75
2023-03-16T02:22:54.306Z,18.55
2023-03-16T02:25:26.581Z,19.83
2023-03-16T02:28:25.561Z,18.15
2023-03-16T02:30:53.407Z,16.65
2023-03-16T02:33:21.373Z,17.90
2023-03-16T02:35:48.037Z,18.75
2023-03-16T02:38:14.736Z,19.02
2023-03-16T02:40:59.299Z,18.95
2023-03-16T02:43:33.337Z,20.35
2023-03-16T02:46:25.598Z,18.20
2023-03-16T02:49:21.438Z,18.25
2023-03-16T02:51:48.334Z,18.50
2023-03-16T02:54:16.784Z,18.80
2023-03-16T02:56:43.411Z,18.05
2023-03-16T02:59:12.125Z,17.17
2023-03-16T03:01:39.214Z,19.35
2023-03-16T03:04:06.140Z,17.95
2023-03-16T03:06:32.887Z,17.70
2023-03-16T03:09:02.048Z,18.10
2023-03-16T03:11:29.523Z,18.73
2023-03-16T03:13:56.411Z,17.98
2023-03-16T03:16:26.177Z,18.00
2023-03-16T03:18:54.854Z,19.77
2023-03-16T03:21:21.866Z,20.83
2023-03-16T03:23:48.417Z,20.10
2023-03-16T03:26:15.439Z,19.73
2023-03-16T03:28:44.646Z,19.92
2023-03-16T03:31:15.348Z,18.27
2023-03-16T03:33:42.117Z,18.55
2023-03-16T03:36:08.872Z,18.23
2023-03-16T03:38:37.645Z,19.85
2023-03-16T03:41:08.045Z,20.85
2023-03-16T03:43:37.210Z,18.98
2023-03-16T03:46:07.898Z,21.10
2023-03-16T03:48:34.828Z,17.88
2023-03-16T03:51:02.444Z,19.92
2023-03-16T03:53:49.252Z,20.83
2023-03-16T03:56:41.790Z,20.88
2023-03-16T03:59:13.714Z,21.55
2023-03-16T04:02:10.882Z,20.98
2023-03-16T04:04:43.872Z,23.27
2023-03-16T04:07:12.994Z,20.45
2023-03-16T04:09:41.829Z,22.52
2023-03-16T04:12:15.341Z,20.88
2023-03-16T04:14:43.569Z,22.77
2023-03-16T04:17:10.445Z,21.02
2023-03-16T04:19:39.263Z,21.42
2023-03-16T04:22:10.892Z,21.75
2023-03-16T04:24:37.598Z,21.55
2023-03-16T04:27:04.351Z,22.25
2023-03-16T04:29:31.954Z,24.52
2023-03-16T04:31:59.023Z,24.90
2023-03-16T04:34:27.582Z,22.88
2023-03-16T04:36:58.104Z,23.80
2023-03-16T04:39:25.148Z,21.80
2023-03-16T04:41:53.661Z,23.55
2023-03-16T04:44:22.789Z,22.60
2023-03-16T04:46:50.299Z,22.92
2023-03-16T04:49:17.854Z,26.13
2023-03-16T04:51:45.606Z,23.33
2023-03-16T04:54:15.479Z,23.73
2023-03-16T04:56:43.846Z,24.80
2023-03-16T04:59:39.825Z,21.92
2023-03-16T05:02:19.431Z,19.98
2023-03-16T05:04:46.211Z,22.65
2023-03-16T05:07:12.742Z,21.60
2023-03-16T05:09:42.847Z,19.05
2023-03-16T05:12:11.351Z,25.90
2023-03-16T05:14:39.343Z,22.83
2023-03-16T05:17:27.026Z,24.38
2023-03-16T05:19:53.637Z,22.05
2023-03-16T05:22:21.195Z,20.88
2023-03-16T05:25:15.735Z,20.73
2023-03-16T05:27:51.854Z,20.80
2023-03-16T05:30:26.822Z,22.70
2023-03-16T05:32:57.833Z,20.70
2023-03-16T05:35:25.357Z,21.88
2023-03-16T05:37:53.927Z,26.00
2023-03-16T05:40:23.093Z,21.23
2023-03-16T05:43:05.246Z,24.48
2023-03-16T05:45:36.738Z,22.77
2023-03-16T05:50:43.449Z,23.13
2023-03-16T05:53:11.542Z,23.40
2023-03-16T05:55:39.576Z,23.35
2023-03-16T05:58:09.730Z,22.25
2023-03-16T06:00:39.452Z,23.50
2023-03-16T06:03:17.911Z,25.75
2023-03-16T06:05:44.676Z,26.45
2023-03-16T06:08:11.571Z,29.60
2023-03-16T06:10:41.759Z,28.85
2023-03-16T06:13:08.351Z,28.15
2023-03-16T06:15:35.203Z,28.30
2023-03-16T06:18:03.492Z,27.85
2023-03-16T06:20:30.461Z,27.95
2023-03-16T06:22:57.674Z,25.65
2023-03-16T06:25:24.308Z,24.40
2023-03-16T06:27:51.844Z,26.30
2023-03-16T06:30:19.472Z,29.38
2023-03-16T06:32:46.157Z,26.48
2023-03-16T06:35:13.956Z,26.73
2023-03-16T06:37:59.760Z,25.27
2023-03-16T06:40:38.902Z,28.83
2023-03-16T06:43:06.361Z,27.63
2023-03-16T06:45:32.971Z,28.95
2023-03-16T06:48:00.953Z,27.98
2023-03-16T06:50:30.062Z,27.55
2023-03-16T06:52:56.909Z,29.00
2023-03-16T06:55:23.608Z,25.27
2023-03-16T06:57:50.292Z,26.67
2023-03-16T07:00:18.912Z,24.90
2023-03-16T07:02:45.679Z,25.55
2023-03-16T07:05:13.818Z,25.27
2023-03-16T07:07:42.697Z,24.90
2023-03-16T07:10:14.972Z,24.15
2023-03-16T07:12:42.315Z,23.40
2023-03-16T07:15:13.305Z,24.05
2023-03-16T07:17:40.896Z,23.33
2023-03-16T07:20:10.583Z,19.48
2023-03-16T07:22:39.530Z,21.42
2023-03-16T07:25:11.251Z,23.63
2023-03-16T07:27:43.889Z,20.70
2023-03-16T07:30:14.199Z,21.08
2023-03-16T07:32:42.862Z,22.27
2023-03-16T07:35:11.602Z,21.98
2023-03-16T07:37:39.556Z,22.30
2023-03-16T07:40:10.231Z,23.45
2023-03-16T07:42:40.080Z,23.70
2023-03-16T07:45:14.522Z,24.02
2023-03-16T07:47:43.292Z,20.63
2023-03-16T07:50:19.470Z,21.88
2023-03-16T07:52:49.451Z,23.58
2023-03-16T07:55:16.725Z,19.52
2023-03-16T07:57:47.941Z,18.92
2023-03-16T08:00:23.749Z,15.85
2023-03-16T08:02:51.829Z,17.73
2023-03-16T08:05:18.426Z,18.35
2023-03-16T08:07:49.866Z,16.42
2023-03-16T08:10:21.030Z,15.65
2023-03-16T08:13:10.814Z,16.88
2023-03-16T08:15:42.320Z,18.42
2023-03-16T08:18:17.108Z,18.33
2023-03-16T08:20:44.664Z,19.90
2023-03-16T08:23:13.144Z,15.63
2023-03-16T08:25:41.624Z,17.08
2023-03-16T08:28:15.845Z,19.33
2023-03-16T08:30:51.131Z,16.60
2023-03-16T08:33:29.069Z,17.30
2023-03-16T08:35:56.078Z,15.05
2023-03-16T08:38:22.952Z,14.68
2023-03-16T08:40:52.608Z,11.00
2023-03-16T08:43:21.773Z,13.18
2023-03-16T08:45:49.234Z,12.02
2023-03-16T08:48:18.281Z,14.32
2023-03-16T08:50:51.890Z,16.73
2023-03-16T08:53:18.962Z,15.10
2023-03-16T08:55:46.210Z,15.02
2023-03-16T08:58:14.213Z,12.95
2023-03-16T09:00:41.189Z,10.77
2023-03-16T09:03:07.866Z,11.40
2023-03-16T09:05:34.539Z,10.23
2023-03-16T09:08:01.595Z,13.23
2023-03-16T09:10:28.902Z,12.20
2023-03-16T09:12:55.714Z,10.73
2023-03-16T09:15:22.704Z,12.38
2023-03-16T09:17:50.344Z,11.35
2023-03-16T09:20:22.803Z,11.90
2023-03-16T09:22:54.572Z,8.65
2023-03-16T09:25:24.172Z,6.78
2023-03-16T09:27:51.607Z,6.15
2023-03-16T09:30:18.962Z,5.95
2023-03-16T09:32:53.111Z,6.00
2023-03-16T09:35:20.203Z,6.70
2023-03-16T09:38:04.729Z,7.80
2023-03-16T09:40:33.493Z,6.78
2023-03-16T09:43:09.159Z,6.82
2023-03-16T09:45:45.726Z,7.82
2023-03-16T09:48:14.342Z,7.47
2023-03-16T09:50:48.833Z,8.57
2023-03-16T09:53:29.858Z,7.43
2023-03-16T09:56:22.462Z,5.28
2023-03-16T10:01:43.126Z,5.25
2023-03-16T10:04:32.357Z,7.82
2023-03-16T10:07:30.868Z,6.55
2023-03-16T10:10:20.081Z,7.28
2023-03-16T10:12:52.558Z,6.18
2023-03-16T10:17:56.929Z,6.85
2023-03-16T10:20:34.541Z,6.35
2023-03-16T10:23:14.661Z,8.88
2023-03-16T10:25:50.309Z,8.38
2023-03-16T10:28:23.472Z,8.52
2023-03-16T10:30:53.184Z,8.57
2023-03-16T10:33:26.919Z,15.70
2023-03-16T10:36:12.711Z,9.00
2023-03-16T10:38:49.212Z,8.07
2023-03-16T10:41:19.018Z,6.07
2023-03-16T10:43:47.905Z,5.53
2023-03-16T10:46:15.301Z,8.07
2023-03-16T10:48:42.551Z,7.28
2023-03-16T10:51:15.117Z,11.23
2023-03-16T10:53:44.638Z,10.00
2023-03-16T10:56:19.915Z,13.52
2023-03-16T10:58:46.877Z,15.15
2023-03-16T11:01:23.681Z,10.23
2023-03-16T11:03:53.259Z,11.10
2023-03-16T11:06:24.698Z,11.32
2023-03-16T11:08:54.947Z,12.15
2023-03-16T11:11:27.450Z,12.25
2023-03-16T11:13:57.743Z,11.10
2023-03-16T11:16:39.736Z,12.18
2023-03-16T11:19:15.020Z,9.50
2023-03-16T11:21:59.775Z,8.55
2023-03-16T11:24:53.095Z,8.23
2023-03-16T11:27:35.151Z,7.13
2023-03-16T11:30:09.787Z,8.50
2023-03-16T11:32:40.193Z,7.93
2023-03-16T11:35:29.213Z,8.93
2023-03-16T11:38:11.073Z,8.00
2023-03-16T11:40:43.852Z,7.73
2023-03-16T11:43:35.182Z,7.93
2023-03-16T11:46:22.799Z,8.00
2023-03-16T11:49:15.515Z,7.80
2023-03-16T11:52:08.328Z,7.32
2023-03-16T11:54:58.830Z,7.50
2023-03-16T11:57:44.385Z,6.80
2023-03-16T12:00:20.490Z,7.95
2023-03-16T12:03:10.155Z,6.93
2023-03-16T12:05:57.194Z,6.55
2023-03-16T12:08:44.970Z,7.00
2023-03-16T12:11:22.352Z,6.53
2023-03-16T12:14:15.725Z,5.55
2023-03-16T12:16:53.650Z,5.38
2023-03-16T12:19:32.428Z,6.18
2023-03-16T12:22:19.895Z,5.47
2023-03-16T12:24:52.707Z,5.68
2023-03-16T12:27:24.960Z,5.60
2023-03-16T12:30:25.900Z,7.22
2023-03-16T12:33:16.715Z,6.45
2023-03-16T12:35:51.942Z,5.03
2023-03-16T12:38:37.359Z,5.15
2023-03-16T12:41:19.844Z,4.50
2023-03-16T12:46:30.631Z,4.80
2023-03-16T12:49:01.162Z,4.13
2023-03-16T12:52:00.143Z,5.43
2023-03-16T12:54:27.509Z,5.78
2023-03-16T12:57:05.883Z,4.95
2023-03-16T12:59:42.863Z,5.28
2023-03-16T13:02:19.692Z,3.63
2023-03-16T13:04:54.515Z,2.85
2023-03-16T13:07:24.523Z,2.55
2023-03-16T13:10:17.402Z,4.00
2023-03-16T13:12:45.222Z,3.30
2023-03-16T13:15:19.992Z,3.75
2023-03-16T13:18:03.639Z,3.38
2023-03-16T13:20:54.396Z,4.05
2023-03-16T13:23:25.678Z,4.03
2023-03-16T13:26:07.585Z,3.88
2023-03-16T13:28:37.687Z,3.20
2023-03-16T13:31:19.067Z,5.18
2023-03-16T13:33:48.174Z,4.30
2023-03-16T13:36:15.666Z,3.92
2023-03-16T13:38:42.307Z,3.78
2023-03-16T13:41:14.351Z,3.78
2023-03-16T13:43:44.147Z,4.10
2023-03-16T13:46:22.432Z,4.45
2023-03-16T13:48:49.830Z,4.45
2023-03-16T13:51:20.705Z,5.57
2023-03-16T13:53:49.405Z,4.63
2023-03-16T13:56:28.374Z,3.53
2023-03-16T13:58:57.795Z,5.28
2023-03-16T14:01:30.905Z,4.40
2023-03-16T14:04:08.558Z,3.80
2023-03-16T14:06:35.933Z,3.28
2023-03-16T14:09:06.530Z,3.08
2023-03-16T14:11:33.253Z,4.90
2023-03-16T14:14:00.720Z,4.82
2023-03-16T14:16:29.776Z,3.22
2023-03-16T14:19:06.587Z,3.60
2023-03-16T14:21:34.649Z,3.13
2023-03-16T14:24:07.743Z,3.72
2023-03-16T14:26:42.773Z,3.67
2023-03-16T14:29:30.559Z,3.28
2023-03-16T14:31:58.904Z,2.95
2023-03-16T14:34:36.628Z,2.70
2023-03-16T14:37:15.781Z,2.67
2023-03-16T14:39:42.826Z,3.47
2023-03-16T14:42:28.868Z,3.28
2023-03-16T14:44:58.721Z,4.10
2023-03-16T14:47:33.510Z,3.47
2023-03-16T14:50:17.027Z,3.00
2023-03-16T14:52:45.694Z,3.25
2023-03-16T14:55:19.238Z,3.53
2023-03-16T14:57:46.465Z,3.40
2023-03-16T15:00:16.567Z,2.80
2023-03-16T15:02:51.565Z,2.80
2023-03-16T15:05:27.406Z,3.45
2023-03-16T15:07:57.150Z,4.53
2023-03-16T15:10:35.237Z,3.67
2023-03-16T15:13:12.843Z,3.95
2023-03-16T15:15:43.887Z,4.20
2023-03-16T15:18:10.825Z,4.75
2023-03-16T15:20:44.834Z,3.95
2023-03-16T15:23:16.474Z,5.28
2023-03-16T15:25:45.728Z,4.55
2023-03-16T15:28:14.573Z,4.43
2023-03-16T15:30:42.424Z,3.60
2023-03-16T15:33:12.928Z,3.90
2023-03-16T15:35:40.979Z,4.00
2023-03-16T15:38:14.755Z,6.10
2023-03-16T15:40:45.697Z,11.13
2023-03-16T15:43:13.743Z,7.40
2023-03-16T15:45:40.570Z,42.28
2023-03-16T15:48:09.121Z,6.43
2023-03-16T15:50:38.974Z,32.53
2023-03-16T15:53:29.179Z,7.32
2023-03-16T15:56:04.809Z,36.83
2023-03-16T15:58:33.532Z,5.63
2023-03-16T16:01:01.737Z,42.25
2023-03-16T16:03:28.542Z,18.65
2023-03-16T16:05:55.520Z,7.15
2023-03-16T16:08:22.654Z,24.02
2023-03-16T16:10:50.889Z,6.03
2023-03-16T16:13:23.379Z,4.57
2023-03-16T16:15:52.147Z,27.80
2023-03-16T16:18:26.588Z,27.70
2023-03-16T16:20:53.946Z,34.05
2023-03-16T16:23:20.812Z,25.08
2023-03-16T16:25:49.540Z,15.40
2023-03-16T16:28:19.713Z,60.20
2023-03-16T16:30:50.786Z,112.45
2023-03-16T16:33:25.415Z,24.37
2023-03-16T16:35:54.161Z,28.55
2023-03-16T16:38:21.909Z,63.55
2023-03-16T16:40:49.381Z,169.50
2023-03-16T16:43:32.138Z,72.03
2023-03-16T16:46:04.893Z,154.10
2023-03-16T16:48:33.354Z,164.73
2023-03-16T16:51:01.393Z,100.15
2023-03-16T16:53:28.217Z,58.13
2023-03-16T16:55:56.960Z,45.35
2023-03-16T16:58:24.880Z,19.98
2023-03-16T17:00:55.507Z,14.38
2023-03-16T17:03:28.251Z,9.95
2023-03-16T17:05:58.531Z,8.80
2023-03-16T17:08:27.031Z,12.23
2023-03-16T17:10:54.445Z,8.23
2023-03-16T17:13:29.719Z,9.18
2023-03-16T17:15:56.455Z,9.23
2023-03-16T17:18:23.132Z,11.98
2023-03-16T17:22:22.834Z,42.65
2023-03-16T17:24:49.589Z,52.03
2023-03-16T17:27:25.653Z,53.58
2023-03-16T17:29:55.071Z,33.70
2023-03-16T17:32:22.830Z,35.80
2023-03-16T17:34:50.217Z,41.90
2023-03-16T17:37:19.850Z,49.92
2023-03-16T17:39:49.002Z,50.42
2023-03-16T17:42:18.528Z,87.03
2023-03-16T17:44:50.702Z,69.85
2023-03-16T17:47:29.219Z,38.47
2023-03-16T17:49:58.497Z,18.50
2023-03-16T17:52:26.710Z,23.80
2023-03-16T17:54:54.784Z,33.83
2023-03-16T17:57:34.114Z,52.65
2023-03-16T18:00:02.281Z,49.77
2023-03-16T18:02:41.491Z,72.63
2023-03-16T18:05:20.976Z,87.03
2023-03-16T18:07:48.123Z,77.60
2023-03-16T18:10:24.290Z,164.77
2023-03-16T18:12:57.056Z,46.80
2023-03-16T18:15:29.623Z,18.27
2023-03-16T18:17:56.828Z,14.18
2023-03-16T18:20:34.448Z,34.00
2023-03-16T18:23:03.489Z,49.85
2023-03-16T18:25:36.236Z,34.53
2023-03-16T18:28:02.982Z,30.83
2023-03-16T18:30:30.938Z,65.93
2023-03-16T18:33:03.461Z,73.65
2023-03-16T18:35:30.985Z,83.30
2023-03-16T18:37:58.015Z,54.33
2023-03-16T18:40:25.934Z,47.55
2023-03-16T18:42:54.326Z,39.45
2023-03-16T18:45:23.655Z,44.55
2023-03-16T18:47:58.009Z,18.58
2023-03-16T18:50:30.432Z,20.75
2023-03-16T18:52:58.279Z,19.08
2023-03-16T18:55:25.658Z,17.80
2023-03-16T18:57:56.624Z,30.63
2023-03-16T19:00:29.798Z,34.70
2023-03-16T19:03:01.836Z,33.40
2023-03-16T19:05:35.920Z,31.52
2023-03-16T19:08:05.023Z,101.55
2023-03-16T19:10:37.130Z,119.45
2023-03-16T19:13:09.759Z,107.22
2023-03-16T19:15:39.482Z,73.50
2023-03-16T19:18:06.318Z,84.63
2023-03-16T19:20:34.887Z,81.22
2023-03-16T19:23:06.474Z,52.53
2023-03-16T19:25:38.861Z,41.72
2023-03-16T19:30:36.893Z,150.40
2023-03-16T19:33:16.316Z,106.65
2023-03-16T19:35:51.559Z,79.68
2023-03-16T19:38:20.466Z,48.72
2023-03-16T19:40:52.056Z,36.92
2023-03-16T19:43:25.248Z,21.70
2023-03-16T19:45:52.663Z,42.72
2023-03-16T19:48:25.063Z,49.28
2023-03-16T19:50:52.099Z,46.28
2023-03-16T19:53:25.592Z,24.50
2023-03-16T19:55:53.605Z,20.27
2023-03-16T19:58:39.315Z,37.30
2023-03-16T20:01:13.023Z,31.20
2023-03-16T20:03:39.828Z,51.90
2023-03-16T20:06:09.649Z,44.30
2023-03-16T20:08:39.100Z,15.82
2023-03-16T20:11:14.081Z,14.23
2023-03-16T20:13:40.868Z,16.15
2023-03-16T20:16:08.337Z,18.20
2023-03-16T20:18:35.397Z,16.77
2023-03-16T20:21:02.161Z,17.75
2023-03-16T20:23:30.582Z,21.90
2023-03-16T20:26:02.078Z,36.40
2023-03-16T20:28:39.488Z,53.80
2023-03-16T20:31:09.147Z,37.03
2023-03-16T20:33:36.166Z,56.08
2023-03-16T20:36:03.052Z,69.72
2023-03-16T20:38:29.835Z,41.55
2023-03-16T20:40:56.703Z,77.93
2023-03-16T20:43:30.179Z,89.05
2023-03-16T20:46:02.284Z,63.08
2023-03-16T20:48:29.269Z,52.42
2023-03-16T20:50:59.921Z,48.10
2023-03-16T20:53:30.212Z,41.58
2023-03-16T20:55:56.996Z,42.42
2023-03-16T20:58:26.579Z,34.90
2023-03-16T21:00:57.918Z,31.27
2023-03-16T21:03:29.360Z,36.25
2023-03-16T21:05:59.796Z,20.15
2023-03-16T21:08:27.153Z,20.90
2023-03-16T21:10:57.125Z,26.23
2023-03-16T21:13:32.561Z,21.05
2023-03-16T21:16:02.276Z,36.33
2023-03-16T21:18:30.309Z,42.40
2023-03-16T21:20:58.877Z,47.08
2023-03-16T21:23:25.773Z,50.85
2023-03-16T21:26:01.386Z,46.95
2023-03-16T21:28:31.648Z,42.08
2023-03-16T21:30:59.158Z,44.78
2023-03-16T21:33:31.970Z,42.20
2023-03-16T21:36:00.808Z,43.10
2023-03-16T21:38:29.401Z,51.33
2023-03-16T21:40:56.479Z,51.60
2023-03-16T21:43:23.280Z,54.58
2023-03-16T21:45:51.919Z,52.72
2023-03-16T21:48:30.001Z,45.50
2023-03-16T21:50:59.572Z,21.95
2023-03-16T21:53:29.083Z,21.20
2023-03-16T21:55:56.499Z,17.35
2023-03-16T21:58:24.247Z,23.15
2023-03-16T22:00:52.690Z,26.20
2023-03-16T22:03:24.348Z,17.35
2023-03-16T22:05:52.260Z,18.55
2023-03-16T22:08:22.251Z,22.63
2023-03-16T22:10:49.638Z,21.63
2023-03-16T22:13:18.927Z,23.45
2023-03-16T22:15:48.424Z,27.27
2023-03-16T22:18:37.107Z,21.48
2023-03-16T22:21:19.963Z,21.45
2023-03-16T22:23:48.538Z,24.80
2023-03-16T22:26:22.450Z,24.85
2023-03-16T22:28:56.042Z,21.77
2023-03-16T22:31:32.909Z,25.60
2023-03-16T22:34:00.720Z,26.85
2023-03-16T22:36:28.175Z,35.65
2023-03-16T22:39:12.229Z,38.40
2023-03-16T22:41:39.585Z,25.13
2023-03-16T22:44:11.400Z,15.00
2023-03-16T22:46:38.087Z,26.67
2023-03-16T22:49:12.589Z,27.33
2023-03-16T22:51:39.394Z,27.25
2023-03-16T22:54:11.171Z,35.22
2023-03-16T22:56:39.191Z,32.90
2023-03-16T22:59:11.367Z,31.65
2023-03-16T23:04:23.512Z,22.30
2023-03-16T23:06:53.008Z,26.45
2023-03-16T23:09:21.698Z,25.73
2023-03-16T23:11:53.929Z,24.67
2023-03-16T23:14:27.367Z,26.70
2023-03-16T23:16:54.592Z,30.55
2023-03-16T23:19:33.893Z,32.40
2023-03-16T23:22:05.830Z,21.60
2023-03-16T23:24:33.722Z,23.88
2023-03-16T23:27:01.168Z,24.48
2023-03-16T23:29:28.507Z,26.80
2023-03-16T23:31:55.133Z,38.35
2023-03-16T23:34:24.393Z,35.22
2023-03-16T23:36:51.715Z,34.95
2023-03-16T23:39:19.009Z,47.13
2023-03-16T23:41:48.591Z,46.00
2023-03-16T23:44:19.254Z,40.70
2023-03-16T23:46:45.839Z,34.55
2023-03-16T23:49:19.070Z,26.50
2023-03-16T23:51:46.400Z,22.50
2023-03-16T23:54:23.198Z,21.00
2023-03-16T23:56:50.614Z,21.63
2023-03-16T23:59:17.774Z,24.52
